Map Display - CYUL to CYQX
(last flight recorded 26-02-2020, 18:21 - Panos Thomas)

Aircraft Weights    Units : Maximums
Passengers :    
Cargo : kg kg
Suggested Fuel Load : kg ? kg
 
     
 
Dry Operating : kg    
Total Payload : 0 kg 0 kg
 
Take Off : 9,295 kg kg
 
Expected Landing : 3,700 kg ? kg

Dale Moore,  DC93 30,  G-BMAM,  .

Route Distance Previous
Flights
Average
Duration
Average
Fuel Flow
Average
Fuel Use
CYUL - Montreal Intl (Dorval), Canada
CYQX - Gander Intl, Canada
808 nm 1 02:06 2,643 kg/h 5,595 kg

Current weather :-
2020/02/26 18:42
TAF TAF CYUL 261739Z 2618/2718 03012G22KT P6SM OVC060
TEMPO 2618/2619 P6SM -SN
FM261900 04012G22KT 6SM -SN SCT020 OVC040
TEMPO 2619/2621 2SM -SN OVC020
FM262100 04015G25KT 1SM -SN OVC008
TEMPO 2621/2702 3SM -SN OVC010 PROB30 2700/2702 2SM -SNRAPL BR
FM270200 05015G25KT 2SM -RASN BR OVC008 PROB30 2702/2704 2SM -SNRAPL BR
FM271200 06018G28KT 3/4SM -SN VV008
BECMG 2716/2718 23018G28KT
RMK NXT FCST BY 262100Z
2020/02/26 18:45
TAF CYQX 261742Z 2618/2718 03010KT P6SM BKN008 OVC015
TEMPO 2618/2709 5SM -SN OVC005 PROB30 2618/2709 1SM -SN -FZDZ BR BKN003 OVC005
FM270900 02008KT P6SM SCT008 OVC015
FM271500 34015KT P6SM BKN015
RMK NXT FCST BY 270000Z

Back to Virtual Airline